Unique Explorer — VRGT8 — position and weather

sailwx.info

Track history (hours):
 
Tides and Currents Weather Stations Pressure Air Temp Water Temp Dewpoint Dewpoint Depression Visibility Wind Speed Wind Dir Waves Ship Positions

Unique Explorer

Last reported at 2017-Dec-11 13:37 UTC. Time now 2017-Dec-13 01:49 UTC.
Position N 55°02' E 005°29'.

Length 183 m; draft 11.7 m.

Type: Tanker. MMSI: 477786800.

Date/timePositionNaut miles runAvg speedWind from/ knotsBaromVisibWave heightAir tempDewpointWater temp
2017-Dec-11 13:37N 55°02' E 005°29'211.8
2017-Dec-11 13:29N 55°01' E 005°28'611.9
2017-Dec-11 13:00N 54°56' E 005°23'612.0
2017-Dec-11 12:30N 54°50' E 005°18'21711.9
2017-Dec-10 18:18N 51°39' E 002°27'413.4
2017-Dec-10 18:00N 51°36' E 002°22'713.4
2017-Dec-10 17:29N 51°31' E 002°15'713.3
2017-Dec-10 16:59N 51°26' E 002°09'611.7
2017-Dec-10 16:30N 51°20' E 002°08'611.8
2017-Dec-10 16:00N 51°14' E 002°05'713.7
2017-Dec-10 15:30N 51°11' E 001°56'714.3
2017-Dec-10 15:00N 51°08' E 001°46'714.4
2017-Dec-10 14:31N 51°02' E 001°38'714.0
2017-Dec-10 14:00N 50°57' E 001°31'4811.9
2017-Dec-10 10:00N 50°25' E 000°36'612.2
2017-Dec-10 09:28N 50°23' E 000°26'612.0
2017-Dec-10 09:00N 50°21' E 000°18'611.9
2017-Dec-10 08:30N 50°19' E 000°09'611.6
2017-Dec-10 07:58N 50°17' W 000°01'511.4
2017-Dec-10 07:30N 50°16' W 000°09'611.2
2017-Dec-10 06:59N 50°14' W 000°17'9713.2
2017-Dec-09 23:38N 49°50' W 002°44'214.7
2017-Dec-09 23:30N 49°50' W 002°47'914.4
2017-Dec-09 22:54N 49°47' W 002°60'914.3
2017-Dec-09 22:16N 49°43' W 003°12'8613.5
2017-Dec-09 15:55N 48°59' W 005°06'512.2
2017-Dec-09 15:29N 48°57' W 005°13'  
2017-Dec-07 10:00N 39°20' W 009°58'612.7
2017-Dec-07 09:30N 39°13' W 009°57'612.7
2017-Dec-07 09:00N 39°07' W 009°57'712.9
2017-Dec-07 08:30N 39°00' W 009°57'612.7
2017-Dec-07 08:00N 38°54' W 009°57'612.8
2017-Dec-07 07:30N 38°48' W 009°57'613.0
2017-Dec-07 07:01N 38°41' W 009°57'713.4
2017-Dec-07 06:30N 38°35' W 009°55'713.5
2017-Dec-07 06:00N 38°28' W 009°53'713.4
2017-Dec-07 05:30N 38°22' W 009°51'713.4
2017-Dec-07 05:01N 38°15' W 009°49'713.3
2017-Dec-07 04:29N 38°09' W 009°47'713.5
2017-Dec-07 04:00N 38°02' W 009°45'1313.3
2017-Dec-07 03:02N 37°49' W 009°42'113.0
2017-Dec-07 02:58N 37°49' W 009°41'  
2017-Dec-02 22:22N 36°31' E 014°03'712.1
2017-Dec-02 21:49N 36°29' E 014°11'311.2
2017-Dec-02 21:30N 36°27' E 014°15'611.5
2017-Dec-02 21:00N 36°26' E 014°22'611.4
2017-Dec-02 20:30N 36°24' E 014°28'611.4
2017-Dec-02 20:00N 36°23' E 014°35'611.4
2017-Dec-02 19:30N 36°21' E 014°42'611.5
2017-Dec-02 19:00N 36°19' E 014°49'  
Track history (hours):
 
Tides and Currents Weather Stations Pressure Air Temp Water Temp Dewpoint Dewpoint Depression Visibility Wind Speed Wind Dir Waves Ship Positions

Unique Explorer

Last reported at 2017-Dec-11 13:37 UTC. Time now 2017-Dec-13 01:49 UTC.
Position N 55°02' E 005°29'.

Length 183 m; draft 11.7 m.

Type: Tanker. MMSI: 477786800.

Date/timePositionNaut miles runAvg speedWind from/ knotsBaromVisibWave heightAir tempDewpointWater temp
2017-Dec-11 13:37N 55°02' E 005°29'211.8
2017-Dec-11 13:29N 55°01' E 005°28'611.9
2017-Dec-11 13:00N 54°56' E 005°23'612.0
2017-Dec-11 12:30N 54°50' E 005°18'21711.9
2017-Dec-10 18:18N 51°39' E 002°27'413.4
2017-Dec-10 18:00N 51°36' E 002°22'713.4
2017-Dec-10 17:29N 51°31' E 002°15'713.3
2017-Dec-10 16:59N 51°26' E 002°09'611.7
2017-Dec-10 16:30N 51°20' E 002°08'611.8
2017-Dec-10 16:00N 51°14' E 002°05'713.7
2017-Dec-10 15:30N 51°11' E 001°56'714.3
2017-Dec-10 15:00N 51°08' E 001°46'714.4
2017-Dec-10 14:31N 51°02' E 001°38'714.0
2017-Dec-10 14:00N 50°57' E 001°31'4811.9
2017-Dec-10 10:00N 50°25' E 000°36'612.2
2017-Dec-10 09:28N 50°23' E 000°26'612.0
2017-Dec-10 09:00N 50°21' E 000°18'611.9
2017-Dec-10 08:30N 50°19' E 000°09'611.6
2017-Dec-10 07:58N 50°17' W 000°01'511.4
2017-Dec-10 07:30N 50°16' W 000°09'611.2
2017-Dec-10 06:59N 50°14' W 000°17'9713.2
2017-Dec-09 23:38N 49°50' W 002°44'214.7
2017-Dec-09 23:30N 49°50' W 002°47'914.4
2017-Dec-09 22:54N 49°47' W 002°60'914.3
2017-Dec-09 22:16N 49°43' W 003°12'8613.5
2017-Dec-09 15:55N 48°59' W 005°06'512.2
2017-Dec-09 15:29N 48°57' W 005°13'  
2017-Dec-07 10:00N 39°20' W 009°58'612.7
2017-Dec-07 09:30N 39°13' W 009°57'612.7
2017-Dec-07 09:00N 39°07' W 009°57'712.9
2017-Dec-07 08:30N 39°00' W 009°57'612.7
2017-Dec-07 08:00N 38°54' W 009°57'612.8
2017-Dec-07 07:30N 38°48' W 009°57'613.0
2017-Dec-07 07:01N 38°41' W 009°57'713.4
2017-Dec-07 06:30N 38°35' W 009°55'713.5
2017-Dec-07 06:00N 38°28' W 009°53'713.4
2017-Dec-07 05:30N 38°22' W 009°51'713.4
2017-Dec-07 05:01N 38°15' W 009°49'713.3
2017-Dec-07 04:29N 38°09' W 009°47'713.5
2017-Dec-07 04:00N 38°02' W 009°45'1313.3
2017-Dec-07 03:02N 37°49' W 009°42'113.0
2017-Dec-07 02:58N 37°49' W 009°41'  
2017-Dec-02 22:22N 36°31' E 014°03'712.1
2017-Dec-02 21:49N 36°29' E 014°11'311.2
2017-Dec-02 21:30N 36°27' E 014°15'611.5
2017-Dec-02 21:00N 36°26' E 014°22'611.4
2017-Dec-02 20:30N 36°24' E 014°28'611.4
2017-Dec-02 20:00N 36°23' E 014°35'611.4
2017-Dec-02 19:30N 36°21' E 014°42'611.5
2017-Dec-02 19:00N 36°19' E 014°49'  

Dump ship's entire track history